sensor_id;sensor_type;location;lat;lon;timestamp;P1;durP1;ratioP1;P2;durP2;ratioP2
12302;SDS011;6214;48.012;7.862;2023-08-30T00:01:13;4.60;;;1.90;;
12302;SDS011;6214;48.012;7.862;2023-08-30T00:03:40;4.90;;;2.00;;
12302;SDS011;6214;48.012;7.862;2023-08-30T00:06:07;5.68;;;2.20;;
12302;SDS011;6214;48.012;7.862;2023-08-30T00:08:35;4.85;;;2.00;;
12302;SDS011;6214;48.012;7.862;2023-08-30T00:11:02;5.30;;;2.30;;
12302;SDS011;6214;48.012;7.862;2023-08-30T00:13:31;5.13;;;2.08;;
12302;SDS011;6214;48.012;7.862;2023-08-30T00:15:59;5.20;;;2.05;;
12302;SDS011;6214;48.012;7.862;2023-08-30T00:18:28;6.00;;;2.00;;
12302;SDS011;6214;48.012;7.862;2023-08-30T00:20:56;5.60;;;2.00;;
12302;SDS011;6214;48.012;7.862;2023-08-30T00:23:23;6.03;;;2.30;;
12302;SDS011;6214;48.012;7.862;2023-08-30T00:25:51;5.22;;;2.20;;
12302;SDS011;6214;48.012;7.862;2023-08-30T00:28:18;4.70;;;1.83;;
12302;SDS011;6214;48.012;7.862;2023-08-30T00:30:45;7.40;;;1.90;;
12302;SDS011;6214;48.012;7.862;2023-08-30T00:33:12;4.90;;;1.80;;
12302;SDS011;6214;48.012;7.862;2023-08-30T00:35:39;4.90;;;1.80;;
12302;SDS011;6214;48.012;7.862;2023-08-30T00:38:06;5.10;;;1.90;;
12302;SDS011;6214;48.012;7.862;2023-08-30T00:40:37;6.72;;;1.90;;
12302;SDS011;6214;48.012;7.862;2023-08-30T00:43:08;6.20;;;2.00;;
12302;SDS011;6214;48.012;7.862;2023-08-30T00:45:35;5.00;;;2.00;;
12302;SDS011;6214;48.012;7.862;2023-08-30T00:48:06;5.13;;;1.92;;
12302;SDS011;6214;48.012;7.862;2023-08-30T00:50:34;4.70;;;1.80;;
12302;SDS011;6214;48.012;7.862;2023-08-30T00:53:01;4.80;;;1.75;;
12302;SDS011;6214;48.012;7.862;2023-08-30T00:55:33;5.30;;;1.77;;
12302;SDS011;6214;48.012;7.862;2023-08-30T00:58:01;4.78;;;2.00;;
12302;SDS011;6214;48.012;7.862;2023-08-30T01:00:29;5.63;;;1.75;;
12302;SDS011;6214;48.012;7.862;2023-08-30T01:02:57;4.50;;;1.83;;
12302;SDS011;6214;48.012;7.862;2023-08-30T01:05:25;4.72;;;1.90;;
12302;SDS011;6214;48.012;7.862;2023-08-30T01:07:52;4.50;;;1.70;;
12302;SDS011;6214;48.012;7.862;2023-08-30T01:10:21;6.00;;;1.70;;
12302;SDS011;6214;48.012;7.862;2023-08-30T01:12:57;4.50;;;1.70;;
12302;SDS011;6214;48.012;7.862;2023-08-30T01:15:32;5.30;;;1.80;;
12302;SDS011;6214;48.012;7.862;2023-08-30T01:18:00;6.25;;;2.30;;
12302;SDS011;6214;48.012;7.862;2023-08-30T01:20:31;7.10;;;2.70;;
12302;SDS011;6214;48.012;7.862;2023-08-30T01:23:05;5.22;;;2.30;;
12302;SDS011;6214;48.012;7.862;2023-08-30T01:25:48;5.30;;;2.00;;
12302;SDS011;6214;48.012;7.862;2023-08-30T01:28:30;5.47;;;2.00;;
12302;SDS011;6214;48.012;7.862;2023-08-30T01:30:59;5.13;;;2.15;;
12302;SDS011;6214;48.012;7.862;2023-08-30T01:33:26;5.75;;;1.85;;
12302;SDS011;6214;48.012;7.862;2023-08-30T01:35:55;4.80;;;2.20;;
12302;SDS011;6214;48.012;7.862;2023-08-30T01:38:25;5.82;;;2.42;;
12302;SDS011;6214;48.012;7.862;2023-08-30T01:40:54;5.50;;;2.45;;
12302;SDS011;6214;48.012;7.862;2023-08-30T01:43:22;5.20;;;2.10;;
12302;SDS011;6214;48.012;7.862;2023-08-30T01:45:52;7.10;;;2.10;;
12302;SDS011;6214;48.012;7.862;2023-08-30T01:48:22;5.50;;;1.75;;
12302;SDS011;6214;48.012;7.862;2023-08-30T01:50:50;5.22;;;2.10;;
12302;SDS011;6214;48.012;7.862;2023-08-30T01:53:17;4.95;;;1.95;;
12302;SDS011;6214;48.012;7.862;2023-08-30T01:55:47;5.50;;;2.10;;
12302;SDS011;6214;48.012;7.862;2023-08-30T01:58:13;6.18;;;1.80;;
12302;SDS011;6214;48.012;7.862;2023-08-30T02:00:40;5.00;;;2.10;;
12302;SDS011;6214;48.012;7.862;2023-08-30T02:03:11;4.47;;;1.70;;
12302;SDS011;6214;48.012;7.862;2023-08-30T02:05:48;5.80;;;1.90;;
12302;SDS011;6214;48.012;7.862;2023-08-30T02:08:41;4.90;;;1.80;;
12302;SDS011;6214;48.012;7.862;2023-08-30T02:11:17;5.45;;;1.80;;
12302;SDS011;6214;48.012;7.862;2023-08-30T02:13:48;4.50;;;1.50;;
12302;SDS011;6214;48.012;7.862;2023-08-30T02:16:16;5.00;;;1.70;;
12302;SDS011;6214;48.012;7.862;2023-08-30T02:18:44;4.70;;;1.70;;
12302;SDS011;6214;48.012;7.862;2023-08-30T02:21:12;4.90;;;1.70;;
12302;SDS011;6214;48.012;7.862;2023-08-30T02:23:39;4.78;;;1.80;;
12302;SDS011;6214;48.012;7.862;2023-08-30T02:26:06;6.50;;;2.00;;
12302;SDS011;6214;48.012;7.862;2023-08-30T02:28:33;4.50;;;1.70;;
12302;SDS011;6214;48.012;7.862;2023-08-30T02:31:00;5.90;;;1.70;;
12302;SDS011;6214;48.012;7.862;2023-08-30T02:33:26;5.43;;;1.83;;
12302;SDS011;6214;48.012;7.862;2023-08-30T02:35:53;4.40;;;1.60;;
12302;SDS011;6214;48.012;7.862;2023-08-30T02:38:21;6.40;;;1.98;;
12302;SDS011;6214;48.012;7.862;2023-08-30T02:40:47;5.15;;;1.92;;
12302;SDS011;6214;48.012;7.862;2023-08-30T02:43:14;4.57;;;1.80;;
12302;SDS011;6214;48.012;7.862;2023-08-30T02:45:41;5.30;;;2.00;;
12302;SDS011;6214;48.012;7.862;2023-08-30T02:48:08;4.80;;;1.80;;
12302;SDS011;6214;48.012;7.862;2023-08-30T02:50:35;5.63;;;1.90;;
12302;SDS011;6214;48.012;7.862;2023-08-30T02:53:02;4.70;;;1.90;;
12302;SDS011;6214;48.012;7.862;2023-08-30T02:55:30;5.30;;;2.10;;
12302;SDS011;6214;48.012;7.862;2023-08-30T02:57:57;4.93;;;1.90;;
12302;SDS011;6214;48.012;7.862;2023-08-30T03:00:24;6.00;;;2.15;;
12302;SDS011;6214;48.012;7.862;2023-08-30T03:02:51;6.20;;;2.33;;
12302;SDS011;6214;48.012;7.862;2023-08-30T03:05:18;4.80;;;2.20;;
12302;SDS011;6214;48.012;7.862;2023-08-30T03:07:45;4.93;;;2.00;;
12302;SDS011;6214;48.012;7.862;2023-08-30T03:10:12;5.40;;;2.22;;
12302;SDS011;6214;48.012;7.862;2023-08-30T03:12:39;5.43;;;2.07;;
12302;SDS011;6214;48.012;7.862;2023-08-30T03:15:06;5.00;;;2.20;;
12302;SDS011;6214;48.012;7.862;2023-08-30T03:17:33;6.50;;;2.00;;
12302;SDS011;6214;48.012;7.862;2023-08-30T03:20:01;5.53;;;2.10;;
12302;SDS011;6214;48.012;7.862;2023-08-30T03:22:30;5.20;;;2.20;;
12302;SDS011;6214;48.012;7.862;2023-08-30T03:24:58;5.80;;;2.50;;
12302;SDS011;6214;48.012;7.862;2023-08-30T03:27:25;4.85;;;2.17;;
12302;SDS011;6214;48.012;7.862;2023-08-30T03:29:52;5.60;;;2.40;;
12302;SDS011;6214;48.012;7.862;2023-08-30T03:32:20;5.40;;;2.30;;
12302;SDS011;6214;48.012;7.862;2023-08-30T03:34:47;5.50;;;2.20;;
12302;SDS011;6214;48.012;7.862;2023-08-30T03:37:14;5.37;;;2.50;;
12302;SDS011;6214;48.012;7.862;2023-08-30T03:39:42;5.05;;;2.20;;
12302;SDS011;6214;48.012;7.862;2023-08-30T03:42:09;5.10;;;2.30;;
12302;SDS011;6214;48.012;7.862;2023-08-30T03:44:37;4.90;;;2.30;;
12302;SDS011;6214;48.012;7.862;2023-08-30T03:47:05;5.22;;;2.30;;
12302;SDS011;6214;48.012;7.862;2023-08-30T03:49:32;5.07;;;2.25;;
12302;SDS011;6214;48.012;7.862;2023-08-30T03:51:59;5.47;;;2.37;;
12302;SDS011;6214;48.012;7.862;2023-08-30T03:54:26;5.53;;;2.30;;
12302;SDS011;6214;48.012;7.862;2023-08-30T03:56:52;4.90;;;2.40;;
12302;SDS011;6214;48.012;7.862;2023-08-30T03:59:19;5.97;;;2.17;;
12302;SDS011;6214;48.012;7.862;2023-08-30T04:01:51;5.00;;;1.80;;
12302;SDS011;6214;48.012;7.862;2023-08-30T04:04:18;4.60;;;1.60;;
12302;SDS011;6214;48.012;7.862;2023-08-30T04:06:44;5.35;;;1.70;;
12302;SDS011;6214;48.012;7.862;2023-08-30T04:09:11;4.78;;;1.65;;
12302;SDS011;6214;48.012;7.862;2023-08-30T04:11:38;5.10;;;1.75;;
12302;SDS011;6214;48.012;7.862;2023-08-30T04:14:05;5.40;;;1.80;;
12302;SDS011;6214;48.012;7.862;2023-08-30T04:16:32;4.88;;;1.65;;
12302;SDS011;6214;48.012;7.862;2023-08-30T04:18:58;4.60;;;1.80;;
12302;SDS011;6214;48.012;7.862;2023-08-30T04:21:26;4.80;;;1.90;;
12302;SDS011;6214;48.012;7.862;2023-08-30T04:23:52;4.80;;;1.60;;
12302;SDS011;6214;48.012;7.862;2023-08-30T04:26:19;5.17;;;2.00;;
12302;SDS011;6214;48.012;7.862;2023-08-30T04:28:46;4.50;;;1.70;;
12302;SDS011;6214;48.012;7.862;2023-08-30T04:31:13;6.20;;;1.98;;
12302;SDS011;6214;48.012;7.862;2023-08-30T04:33:39;4.45;;;1.63;;
12302;SDS011;6214;48.012;7.862;2023-08-30T04:36:06;4.70;;;1.90;;
12302;SDS011;6214;48.012;7.862;2023-08-30T04:38:34;4.70;;;1.70;;
12302;SDS011;6214;48.012;7.862;2023-08-30T04:41:10;4.30;;;1.60;;
12302;SDS011;6214;48.012;7.862;2023-08-30T04:43:37;4.30;;;1.30;;
12302;SDS011;6214;48.012;7.862;2023-08-30T04:46:04;4.90;;;1.60;;
12302;SDS011;6214;48.012;7.862;2023-08-30T04:48:31;5.68;;;1.70;;
12302;SDS011;6214;48.012;7.862;2023-08-30T04:50:59;5.80;;;1.73;;
12302;SDS011;6214;48.012;7.862;2023-08-30T04:53:27;4.67;;;1.60;;
12302;SDS011;6214;48.012;7.862;2023-08-30T04:55:54;5.30;;;1.60;;
12302;SDS011;6214;48.012;7.862;2023-08-30T04:58:20;5.30;;;1.90;;
12302;SDS011;6214;48.012;7.862;2023-08-30T05:00:47;4.97;;;1.70;;
12302;SDS011;6214;48.012;7.862;2023-08-30T05:03:14;4.80;;;1.80;;
12302;SDS011;6214;48.012;7.862;2023-08-30T05:05:44;6.00;;;2.20;;
12302;SDS011;6214;48.012;7.862;2023-08-30T05:08:12;5.53;;;2.20;;
12302;SDS011;6214;48.012;7.862;2023-08-30T05:10:39;5.40;;;2.33;;
12302;SDS011;6214;48.012;7.862;2023-08-30T05:13:07;5.50;;;2.20;;
12302;SDS011;6214;48.012;7.862;2023-08-30T05:15:33;5.55;;;2.20;;
12302;SDS011;6214;48.012;7.862;2023-08-30T05:18:00;6.80;;;2.20;;
12302;SDS011;6214;48.012;7.862;2023-08-30T05:20:27;4.88;;;2.15;;
12302;SDS011;6214;48.012;7.862;2023-08-30T05:22:54;4.80;;;1.90;;
12302;SDS011;6214;48.012;7.862;2023-08-30T05:25:21;5.57;;;2.42;;
12302;SDS011;6214;48.012;7.862;2023-08-30T05:27:47;6.23;;;2.40;;
12302;SDS011;6214;48.012;7.862;2023-08-30T05:30:14;5.30;;;2.30;;
12302;SDS011;6214;48.012;7.862;2023-08-30T05:32:42;5.30;;;2.40;;
12302;SDS011;6214;48.012;7.862;2023-08-30T05:35:09;6.00;;;2.40;;
12302;SDS011;6214;48.012;7.862;2023-08-30T05:37:36;4.80;;;2.00;;
12302;SDS011;6214;48.012;7.862;2023-08-30T05:40:03;6.40;;;2.50;;
12302;SDS011;6214;48.012;7.862;2023-08-30T05:42:30;5.35;;;2.58;;
12302;SDS011;6214;48.012;7.862;2023-08-30T05:44:57;5.20;;;2.30;;
12302;SDS011;6214;48.012;7.862;2023-08-30T05:47:24;5.45;;;2.38;;
12302;SDS011;6214;48.012;7.862;2023-08-30T05:49:50;6.05;;;2.47;;
12302;SDS011;6214;48.012;7.862;2023-08-30T05:52:17;5.68;;;2.50;;
12302;SDS011;6214;48.012;7.862;2023-08-30T05:54:44;5.20;;;2.30;;
12302;SDS011;6214;48.012;7.862;2023-08-30T05:57:11;5.75;;;2.50;;
12302;SDS011;6214;48.012;7.862;2023-08-30T05:59:38;5.63;;;2.47;;
12302;SDS011;6214;48.012;7.862;2023-08-30T06:02:05;5.40;;;2.30;;
12302;SDS011;6214;48.012;7.862;2023-08-30T06:04:32;5.80;;;2.00;;
12302;SDS011;6214;48.012;7.862;2023-08-30T06:06:59;4.95;;;1.80;;
12302;SDS011;6214;48.012;7.862;2023-08-30T06:09:25;5.38;;;1.80;;
12302;SDS011;6214;48.012;7.862;2023-08-30T06:11:52;4.60;;;1.70;;
12302;SDS011;6214;48.012;7.862;2023-08-30T06:14:19;5.60;;;1.70;;
12302;SDS011;6214;48.012;7.862;2023-08-30T06:16:46;6.80;;;1.70;;
12302;SDS011;6214;48.012;7.862;2023-08-30T06:19:13;4.60;;;1.60;;
12302;SDS011;6214;48.012;7.862;2023-08-30T06:21:40;4.90;;;1.70;;
12302;SDS011;6214;48.012;7.862;2023-08-30T06:24:06;5.60;;;1.50;;
12302;SDS011;6214;48.012;7.862;2023-08-30T06:26:33;4.65;;;1.55;;
12302;SDS011;6214;48.012;7.862;2023-08-30T06:29:00;4.63;;;1.33;;
12302;SDS011;6214;48.012;7.862;2023-08-30T06:31:30;5.90;;;1.87;;
12302;SDS011;6214;48.012;7.862;2023-08-30T06:33:59;5.00;;;1.80;;
12302;SDS011;6214;48.012;7.862;2023-08-30T06:36:26;5.50;;;1.60;;
12302;SDS011;6214;48.012;7.862;2023-08-30T06:38:53;5.10;;;1.70;;
12302;SDS011;6214;48.012;7.862;2023-08-30T06:41:19;5.70;;;1.70;;
12302;SDS011;6214;48.012;7.862;2023-08-30T06:43:46;5.30;;;1.90;;
12302;SDS011;6214;48.012;7.862;2023-08-30T06:46:13;4.60;;;1.60;;
12302;SDS011;6214;48.012;7.862;2023-08-30T06:48:40;5.93;;;1.60;;
12302;SDS011;6214;48.012;7.862;2023-08-30T06:51:07;4.80;;;1.70;;
12302;SDS011;6214;48.012;7.862;2023-08-30T06:53:33;4.63;;;1.50;;
12302;SDS011;6214;48.012;7.862;2023-08-30T06:56:00;4.40;;;1.60;;
12302;SDS011;6214;48.012;7.862;2023-08-30T06:58:28;4.65;;;1.58;;
12302;SDS011;6214;48.012;7.862;2023-08-30T07:00:56;4.80;;;1.60;;
12302;SDS011;6214;48.012;7.862;2023-08-30T07:03:24;5.10;;;1.30;;
12302;SDS011;6214;48.012;7.862;2023-08-30T07:05:51;4.60;;;1.40;;
12302;SDS011;6214;48.012;7.862;2023-08-30T07:08:18;4.70;;;1.50;;
12302;SDS011;6214;48.012;7.862;2023-08-30T07:10:45;5.10;;;1.63;;
12302;SDS011;6214;48.012;7.862;2023-08-30T07:13:12;4.60;;;1.58;;
12302;SDS011;6214;48.012;7.862;2023-08-30T07:15:39;5.28;;;2.17;;
12302;SDS011;6214;48.012;7.862;2023-08-30T07:18:07;5.80;;;2.10;;
12302;SDS011;6214;48.012;7.862;2023-08-30T07:20:35;4.90;;;1.80;;
12302;SDS011;6214;48.012;7.862;2023-08-30T07:23:03;5.70;;;1.80;;
12302;SDS011;6214;48.012;7.862;2023-08-30T07:25:30;4.90;;;1.60;;
12302;SDS011;6214;48.012;7.862;2023-08-30T07:27:59;5.40;;;1.80;;
12302;SDS011;6214;48.012;7.862;2023-08-30T07:30:26;4.80;;;1.60;;
12302;SDS011;6214;48.012;7.862;2023-08-30T07:32:53;5.03;;;1.50;;
12302;SDS011;6214;48.012;7.862;2023-08-30T07:35:20;5.10;;;1.60;;
12302;SDS011;6214;48.012;7.862;2023-08-30T07:37:47;4.50;;;1.60;;
12302;SDS011;6214;48.012;7.862;2023-08-30T07:40:14;4.80;;;1.60;;
12302;SDS011;6214;48.012;7.862;2023-08-30T07:42:41;5.07;;;1.63;;
12302;SDS011;6214;48.012;7.862;2023-08-30T07:45:08;5.03;;;1.60;;
12302;SDS011;6214;48.012;7.862;2023-08-30T07:47:35;5.50;;;1.67;;
12302;SDS011;6214;48.012;7.862;2023-08-30T07:50:04;5.63;;;1.70;;
12302;SDS011;6214;48.012;7.862;2023-08-30T07:52:32;4.50;;;1.60;;
12302;SDS011;6214;48.012;7.862;2023-08-30T07:55:11;4.88;;;1.90;;
12302;SDS011;6214;48.012;7.862;2023-08-30T07:57:38;4.80;;;1.50;;
12302;SDS011;6214;48.012;7.862;2023-08-30T08:00:05;4.60;;;1.60;;
12302;SDS011;6214;48.012;7.862;2023-08-30T08:02:34;4.80;;;1.80;;
12302;SDS011;6214;48.012;7.862;2023-08-30T08:05:00;4.80;;;1.80;;
12302;SDS011;6214;48.012;7.862;2023-08-30T08:07:27;4.50;;;1.50;;
12302;SDS011;6214;48.012;7.862;2023-08-30T08:09:54;5.10;;;1.70;;
12302;SDS011;6214;48.012;7.862;2023-08-30T08:12:22;4.70;;;1.77;;
12302;SDS011;6214;48.012;7.862;2023-08-30T08:14:49;4.60;;;1.80;;
12302;SDS011;6214;48.012;7.862;2023-08-30T08:17:16;4.70;;;1.80;;
12302;SDS011;6214;48.012;7.862;2023-08-30T08:19:43;4.70;;;1.88;;
12302;SDS011;6214;48.012;7.862;2023-08-30T08:22:10;4.80;;;2.00;;
12302;SDS011;6214;48.012;7.862;2023-08-30T08:24:37;5.45;;;1.77;;
12302;SDS011;6214;48.012;7.862;2023-08-30T08:27:04;5.10;;;1.80;;
12302;SDS011;6214;48.012;7.862;2023-08-30T08:29:32;5.10;;;1.90;;
12302;SDS011;6214;48.012;7.862;2023-08-30T08:31:59;4.90;;;1.88;;
12302;SDS011;6214;48.012;7.862;2023-08-30T08:34:26;5.70;;;1.90;;
12302;SDS011;6214;48.012;7.862;2023-08-30T08:36:53;5.03;;;2.10;;
12302;SDS011;6214;48.012;7.862;2023-08-30T08:39:20;5.10;;;1.95;;
12302;SDS011;6214;48.012;7.862;2023-08-30T08:41:47;5.00;;;1.90;;
12302;SDS011;6214;48.012;7.862;2023-08-30T08:44:14;4.70;;;1.90;;
12302;SDS011;6214;48.012;7.862;2023-08-30T08:46:42;4.80;;;1.98;;
12302;SDS011;6214;48.012;7.862;2023-08-30T08:49:11;6.55;;;1.95;;
12302;SDS011;6214;48.012;7.862;2023-08-30T08:51:40;4.80;;;1.90;;
12302;SDS011;6214;48.012;7.862;2023-08-30T08:54:12;6.05;;;1.90;;
12302;SDS011;6214;48.012;7.862;2023-08-30T08:56:39;5.00;;;1.90;;
12302;SDS011;6214;48.012;7.862;2023-08-30T08:59:07;5.10;;;2.00;;
12302;SDS011;6214;48.012;7.862;2023-08-30T09:01:35;4.93;;;1.92;;
12302;SDS011;6214;48.012;7.862;2023-08-30T09:04:09;5.70;;;1.92;;
12302;SDS011;6214;48.012;7.862;2023-08-30T09:06:38;4.80;;;1.90;;
12302;SDS011;6214;48.012;7.862;2023-08-30T09:09:10;5.20;;;1.90;;
12302;SDS011;6214;48.012;7.862;2023-08-30T09:11:37;5.23;;;1.97;;
12302;SDS011;6214;48.012;7.862;2023-08-30T09:14:17;5.90;;;2.00;;
12302;SDS011;6214;48.012;7.862;2023-08-30T09:16:57;5.30;;;1.83;;
12302;SDS011;6214;48.012;7.862;2023-08-30T09:19:27;5.50;;;2.10;;
12302;SDS011;6214;48.012;7.862;2023-08-30T09:21:55;5.28;;;2.33;;
12302;SDS011;6214;48.012;7.862;2023-08-30T09:24:23;6.50;;;2.17;;
12302;SDS011;6214;48.012;7.862;2023-08-30T09:26:51;5.47;;;2.38;;
12302;SDS011;6214;48.012;7.862;2023-08-30T09:29:20;5.40;;;2.50;;
12302;SDS011;6214;48.012;7.862;2023-08-30T09:31:50;6.30;;;2.70;;
12302;SDS011;6214;48.012;7.862;2023-08-30T09:34:22;5.37;;;2.57;;
12302;SDS011;6214;48.012;7.862;2023-08-30T09:36:50;5.50;;;2.47;;
12302;SDS011;6214;48.012;7.862;2023-08-30T09:39:18;5.20;;;2.30;;
12302;SDS011;6214;48.012;7.862;2023-08-30T09:41:48;5.82;;;2.30;;
12302;SDS011;6214;48.012;7.862;2023-08-30T09:44:17;5.85;;;2.60;;
12302;SDS011;6214;48.012;7.862;2023-08-30T09:46:50;5.18;;;2.03;;
12302;SDS011;6214;48.012;7.862;2023-08-30T09:49:20;5.55;;;2.28;;
12302;SDS011;6214;48.012;7.862;2023-08-30T09:51:52;5.50;;;2.30;;
12302;SDS011;6214;48.012;7.862;2023-08-30T09:54:21;5.50;;;2.50;;
12302;SDS011;6214;48.012;7.862;2023-08-30T09:56:54;5.53;;;2.25;;
12302;SDS011;6214;48.012;7.862;2023-08-30T09:59:24;5.00;;;2.30;;
12302;SDS011;6214;48.012;7.862;2023-08-30T10:01:51;5.10;;;2.10;;
12302;SDS011;6214;48.012;7.862;2023-08-30T10:04:20;4.93;;;2.10;;
12302;SDS011;6214;48.012;7.862;2023-08-30T10:06:47;4.65;;;2.00;;
12302;SDS011;6214;48.012;7.862;2023-08-30T10:09:15;4.80;;;2.10;;
12302;SDS011;6214;48.012;7.862;2023-08-30T10:11:45;4.95;;;2.15;;
12302;SDS011;6214;48.012;7.862;2023-08-30T10:14:13;5.10;;;2.30;;
12302;SDS011;6214;48.012;7.862;2023-08-30T10:16:49;5.00;;;2.10;;
12302;SDS011;6214;48.012;7.862;2023-08-30T10:19:24;5.10;;;2.17;;
12302;SDS011;6214;48.012;7.862;2023-08-30T10:22:03;5.00;;;2.30;;
12302;SDS011;6214;48.012;7.862;2023-08-30T10:24:42;4.93;;;2.10;;
12302;SDS011;6214;48.012;7.862;2023-08-30T10:27:33;5.00;;;2.20;;
12302;SDS011;6214;48.012;7.862;2023-08-30T10:30:02;6.45;;;2.28;;
12302;SDS011;6214;48.012;7.862;2023-08-30T10:32:31;5.38;;;2.10;;
12302;SDS011;6214;48.012;7.862;2023-08-30T10:35:01;4.80;;;1.80;;
12302;SDS011;6214;48.012;7.862;2023-08-30T10:37:31;5.30;;;1.80;;
12302;SDS011;6214;48.012;7.862;2023-08-30T10:40:02;4.60;;;1.60;;
12302;SDS011;6214;48.012;7.862;2023-08-30T10:42:30;5.05;;;1.80;;
12302;SDS011;6214;48.012;7.862;2023-08-30T10:44:58;5.07;;;1.60;;
12302;SDS011;6214;48.012;7.862;2023-08-30T10:47:39;5.45;;;2.15;;
12302;SDS011;6214;48.012;7.862;2023-08-30T10:50:08;5.70;;;2.03;;
12302;SDS011;6214;48.012;7.862;2023-08-30T10:52:39;4.80;;;2.10;;
12302;SDS011;6214;48.012;7.862;2023-08-30T10:57:41;6.50;;;2.30;;
12302;SDS011;6214;48.012;7.862;2023-08-30T11:00:12;5.00;;;1.85;;
12302;SDS011;6214;48.012;7.862;2023-08-30T11:02:45;4.70;;;1.80;;
12302;SDS011;6214;48.012;7.862;2023-08-30T11:05:15;5.10;;;2.00;;
12302;SDS011;6214;48.012;7.862;2023-08-30T11:07:46;5.50;;;1.90;;
12302;SDS011;6214;48.012;7.862;2023-08-30T11:10:15;5.10;;;2.00;;
12302;SDS011;6214;48.012;7.862;2023-08-30T11:12:44;5.03;;;2.10;;
12302;SDS011;6214;48.012;7.862;2023-08-30T11:15:12;5.10;;;2.03;;
12302;SDS011;6214;48.012;7.862;2023-08-30T11:17:43;5.03;;;2.00;;
12302;SDS011;6214;48.012;7.862;2023-08-30T11:20:11;5.28;;;2.00;;
12302;SDS011;6214;48.012;7.862;2023-08-30T11:22:44;4.80;;;1.90;;
12302;SDS011;6214;48.012;7.862;2023-08-30T11:25:12;5.10;;;2.20;;
12302;SDS011;6214;48.012;7.862;2023-08-30T11:27:41;4.80;;;2.00;;
12302;SDS011;6214;48.012;7.862;2023-08-30T11:30:08;6.40;;;2.30;;
12302;SDS011;6214;48.012;7.862;2023-08-30T11:32:40;4.90;;;1.90;;
12302;SDS011;6214;48.012;7.862;2023-08-30T11:35:11;5.37;;;2.10;;
12302;SDS011;6214;48.012;7.862;2023-08-30T11:37:38;5.60;;;2.20;;
12302;SDS011;6214;48.012;7.862;2023-08-30T11:40:07;5.55;;;2.20;;
12302;SDS011;6214;48.012;7.862;2023-08-30T11:42:37;5.40;;;2.20;;
12302;SDS011;6214;48.012;7.862;2023-08-30T11:45:04;4.90;;;2.10;;
12302;SDS011;6214;48.012;7.862;2023-08-30T11:47:31;5.10;;;2.20;;
12302;SDS011;6214;48.012;7.862;2023-08-30T11:49:58;5.30;;;2.30;;
12302;SDS011;6214;48.012;7.862;2023-08-30T11:52:26;5.40;;;2.20;;
12302;SDS011;6214;48.012;7.862;2023-08-30T11:54:53;5.00;;;2.10;;
12302;SDS011;6214;48.012;7.862;2023-08-30T11:57:21;5.00;;;2.03;;
12302;SDS011;6214;48.012;7.862;2023-08-30T11:59:48;6.70;;;2.30;;
12302;SDS011;6214;48.012;7.862;2023-08-30T12:02:17;5.30;;;1.90;;
12302;SDS011;6214;48.012;7.862;2023-08-30T12:04:45;5.15;;;2.05;;
12302;SDS011;6214;48.012;7.862;2023-08-30T12:07:23;5.15;;;2.00;;
12302;SDS011;6214;48.012;7.862;2023-08-30T12:10:03;4.70;;;1.90;;
12302;SDS011;6214;48.012;7.862;2023-08-30T12:12:34;5.18;;;1.80;;
12302;SDS011;6214;48.012;7.862;2023-08-30T12:15:07;4.63;;;1.60;;
12302;SDS011;6214;48.012;7.862;2023-08-30T12:17:35;4.80;;;1.60;;
12302;SDS011;6214;48.012;7.862;2023-08-30T12:20:03;4.75;;;1.90;;
12302;SDS011;6214;48.012;7.862;2023-08-30T12:22:37;5.50;;;1.90;;
12302;SDS011;6214;48.012;7.862;2023-08-30T12:27:47;4.97;;;1.83;;
12302;SDS011;6214;48.012;7.862;2023-08-30T12:30:17;4.70;;;1.60;;
12302;SDS011;6214;48.012;7.862;2023-08-30T12:32:44;4.60;;;1.60;;
12302;SDS011;6214;48.012;7.862;2023-08-30T12:35:12;5.10;;;1.60;;
12302;SDS011;6214;48.012;7.862;2023-08-30T12:37:39;5.50;;;1.60;;
12302;SDS011;6214;48.012;7.862;2023-08-30T12:40:06;5.80;;;1.90;;
12302;SDS011;6214;48.012;7.862;2023-08-30T12:42:33;4.65;;;1.80;;
12302;SDS011;6214;48.012;7.862;2023-08-30T12:45:00;4.90;;;1.80;;
12302;SDS011;6214;48.012;7.862;2023-08-30T12:47:27;4.40;;;1.45;;
12302;SDS011;6214;48.012;7.862;2023-08-30T12:49:55;4.68;;;2.00;;
12302;SDS011;6214;48.012;7.862;2023-08-30T12:52:22;4.90;;;1.70;;
12302;SDS011;6214;48.012;7.862;2023-08-30T12:54:49;5.50;;;2.00;;
12302;SDS011;6214;48.012;7.862;2023-08-30T12:57:16;4.80;;;1.50;;
12302;SDS011;6214;48.012;7.862;2023-08-30T12:59:43;5.38;;;1.70;;
12302;SDS011;6214;48.012;7.862;2023-08-30T13:02:09;4.50;;;1.52;;
12302;SDS011;6214;48.012;7.862;2023-08-30T13:04:36;4.70;;;1.80;;
12302;SDS011;6214;48.012;7.862;2023-08-30T13:07:04;5.13;;;1.60;;
12302;SDS011;6214;48.012;7.862;2023-08-30T13:09:31;5.13;;;1.70;;
12302;SDS011;6214;48.012;7.862;2023-08-30T13:11:58;4.50;;;1.42;;
12302;SDS011;6214;48.012;7.862;2023-08-30T13:14:25;4.50;;;1.52;;
12302;SDS011;6214;48.012;7.862;2023-08-30T13:16:52;5.60;;;1.70;;
12302;SDS011;6214;48.012;7.862;2023-08-30T13:19:19;4.65;;;1.52;;
12302;SDS011;6214;48.012;7.862;2023-08-30T13:21:45;6.30;;;1.80;;
12302;SDS011;6214;48.012;7.862;2023-08-30T13:24:12;5.25;;;1.60;;
12302;SDS011;6214;48.012;7.862;2023-08-30T13:26:39;4.90;;;1.90;;
12302;SDS011;6214;48.012;7.862;2023-08-30T13:29:06;5.03;;;1.80;;
12302;SDS011;6214;48.012;7.862;2023-08-30T13:31:33;4.60;;;1.83;;
12302;SDS011;6214;48.012;7.862;2023-08-30T13:34:00;5.35;;;1.80;;
12302;SDS011;6214;48.012;7.862;2023-08-30T13:36:27;4.90;;;1.88;;
12302;SDS011;6214;48.012;7.862;2023-08-30T13:38:57;5.40;;;1.80;;
12302;SDS011;6214;48.012;7.862;2023-08-30T13:41:24;4.90;;;2.00;;
12302;SDS011;6214;48.012;7.862;2023-08-30T13:43:51;5.20;;;1.80;;
12302;SDS011;6214;48.012;7.862;2023-08-30T13:46:17;5.30;;;1.70;;
12302;SDS011;6214;48.012;7.862;2023-08-30T13:48:45;5.00;;;1.80;;
12302;SDS011;6214;48.012;7.862;2023-08-30T13:51:13;4.93;;;1.90;;
12302;SDS011;6214;48.012;7.862;2023-08-30T13:53:47;4.90;;;1.70;;
12302;SDS011;6214;48.012;7.862;2023-08-30T13:56:13;4.60;;;1.60;;
12302;SDS011;6214;48.012;7.862;2023-08-30T13:58:41;4.60;;;1.50;;
12302;SDS011;6214;48.012;7.862;2023-08-30T14:01:07;5.20;;;2.00;;
12302;SDS011;6214;48.012;7.862;2023-08-30T14:03:34;7.75;;;4.80;;
12302;SDS011;6214;48.012;7.862;2023-08-30T14:06:01;6.30;;;3.05;;
12302;SDS011;6214;48.012;7.862;2023-08-30T14:08:29;4.90;;;1.70;;
12302;SDS011;6214;48.012;7.862;2023-08-30T14:10:57;4.68;;;1.70;;
12302;SDS011;6214;48.012;7.862;2023-08-30T14:13:24;4.70;;;1.50;;
12302;SDS011;6214;48.012;7.862;2023-08-30T14:15:51;5.00;;;1.40;;
12302;SDS011;6214;48.012;7.862;2023-08-30T14:18:17;5.57;;;1.55;;
12302;SDS011;6214;48.012;7.862;2023-08-30T14:20:44;4.90;;;1.38;;
12302;SDS011;6214;48.012;7.862;2023-08-30T14:23:11;5.68;;;1.70;;
12302;SDS011;6214;48.012;7.862;2023-08-30T14:25:40;4.60;;;1.60;;
12302;SDS011;6214;48.012;7.862;2023-08-30T14:28:07;4.60;;;1.43;;
12302;SDS011;6214;48.012;7.862;2023-08-30T14:30:34;5.22;;;1.75;;
12302;SDS011;6214;48.012;7.862;2023-08-30T14:33:01;5.10;;;1.60;;
12302;SDS011;6214;48.012;7.862;2023-08-30T14:35:28;7.00;;;1.80;;
12302;SDS011;6214;48.012;7.862;2023-08-30T14:37:57;5.22;;;1.88;;
12302;SDS011;6214;48.012;7.862;2023-08-30T14:40:24;5.95;;;1.50;;
12302;SDS011;6214;48.012;7.862;2023-08-30T14:42:51;5.03;;;1.50;;
12302;SDS011;6214;48.012;7.862;2023-08-30T14:45:18;4.45;;;1.30;;
12302;SDS011;6214;48.012;7.862;2023-08-30T14:47:45;5.13;;;1.70;;
12302;SDS011;6214;48.012;7.862;2023-08-30T14:50:12;5.93;;;1.60;;
12302;SDS011;6214;48.012;7.862;2023-08-30T14:52:38;5.00;;;1.70;;
12302;SDS011;6214;48.012;7.862;2023-08-30T14:55:06;5.60;;;1.63;;
12302;SDS011;6214;48.012;7.862;2023-08-30T14:57:33;5.10;;;1.70;;
12302;SDS011;6214;48.012;7.862;2023-08-30T15:00:00;5.10;;;1.70;;
12302;SDS011;6214;48.012;7.862;2023-08-30T15:02:27;5.05;;;1.60;;
12302;SDS011;6214;48.012;7.862;2023-08-30T15:04:54;4.38;;;1.40;;
12302;SDS011;6214;48.012;7.862;2023-08-30T15:07:21;4.70;;;1.50;;
12302;SDS011;6214;48.012;7.862;2023-08-30T15:09:48;6.50;;;1.83;;
12302;SDS011;6214;48.012;7.862;2023-08-30T15:12:16;5.00;;;1.60;;